sensor_id;sensor_type;location;lat;lon;timestamp;temperature;humidity
58517;DHT22;44308;50.810;0.284;2022-11-23T00:01:24;5.60;99.90
58517;DHT22;44308;50.810;0.284;2022-11-23T00:03:51;5.70;99.90
58517;DHT22;44308;50.810;0.284;2022-11-23T00:06:18;5.40;99.90
58517;DHT22;44308;50.810;0.284;2022-11-23T00:08:46;5.50;99.90
58517;DHT22;44308;50.810;0.284;2022-11-23T00:11:12;5.40;99.90
58517;DHT22;44308;50.810;0.284;2022-11-23T00:13:38;5.60;99.90
58517;DHT22;44308;50.810;0.284;2022-11-23T00:16:06;5.40;99.90
58517;DHT22;44308;50.810;0.284;2022-11-23T00:18:32;5.50;99.90
58517;DHT22;44308;50.810;0.284;2022-11-23T00:20:58;5.20;99.90
58517;DHT22;44308;50.810;0.284;2022-11-23T00:23:24;5.30;99.90
58517;DHT22;44308;50.810;0.284;2022-11-23T00:25:51;5.10;99.90
58517;DHT22;44308;50.810;0.284;2022-11-23T00:28:17;5.30;99.90
58517;DHT22;44308;50.810;0.284;2022-11-23T00:30:48;5.00;99.90
58517;DHT22;44308;50.810;0.284;2022-11-23T00:33:15;5.00;99.90
58517;DHT22;44308;50.810;0.284;2022-11-23T00:35:40;5.00;99.90
58517;DHT22;44308;50.810;0.284;2022-11-23T00:38:06;5.20;99.90
58517;DHT22;44308;50.810;0.284;2022-11-23T00:40:32;5.20;99.90
58517;DHT22;44308;50.810;0.284;2022-11-23T00:42:57;5.10;99.90
58517;DHT22;44308;50.810;0.284;2022-11-23T00:45:23;5.20;99.90
58517;DHT22;44308;50.810;0.284;2022-11-23T00:47:49;5.10;99.90
58517;DHT22;44308;50.810;0.284;2022-11-23T00:50:15;5.00;99.90
58517;DHT22;44308;50.810;0.284;2022-11-23T00:52:41;5.30;99.90
58517;DHT22;44308;50.810;0.284;2022-11-23T00:55:07;5.10;99.90
58517;DHT22;44308;50.810;0.284;2022-11-23T00:57:33;5.10;99.90
58517;DHT22;44308;50.810;0.284;2022-11-23T00:59:59;5.20;99.90
58517;DHT22;44308;50.810;0.284;2022-11-23T01:02:25;5.40;99.90
58517;DHT22;44308;50.810;0.284;2022-11-23T01:04:50;5.60;99.90
58517;DHT22;44308;50.810;0.284;2022-11-23T01:07:16;5.50;99.90
58517;DHT22;44308;50.810;0.284;2022-11-23T01:09:42;5.80;99.90
58517;DHT22;44308;50.810;0.284;2022-11-23T01:12:07;5.80;99.90
58517;DHT22;44308;50.810;0.284;2022-11-23T01:14:33;6.10;99.90
58517;DHT22;44308;50.810;0.284;2022-11-23T01:16:59;6.30;99.90
58517;DHT22;44308;50.810;0.284;2022-11-23T01:19:24;6.40;99.90
58517;DHT22;44308;50.810;0.284;2022-11-23T01:21:50;6.30;99.90
58517;DHT22;44308;50.810;0.284;2022-11-23T01:24:19;6.30;99.90
58517;DHT22;44308;50.810;0.284;2022-11-23T01:26:49;6.40;99.90
58517;DHT22;44308;50.810;0.284;2022-11-23T01:29:14;6.50;99.90
58517;DHT22;44308;50.810;0.284;2022-11-23T01:31:40;6.80;99.90
58517;DHT22;44308;50.810;0.284;2022-11-23T01:34:06;6.80;99.90
58517;DHT22;44308;50.810;0.284;2022-11-23T01:36:33;7.00;99.90
58517;DHT22;44308;50.810;0.284;2022-11-23T01:39:00;6.80;99.90
58517;DHT22;44308;50.810;0.284;2022-11-23T01:41:33;7.10;99.90
58517;DHT22;44308;50.810;0.284;2022-11-23T01:43:58;7.00;99.90
58517;DHT22;44308;50.810;0.284;2022-11-23T01:46:25;6.90;99.90
58517;DHT22;44308;50.810;0.284;2022-11-23T01:48:57;7.20;99.90
58517;DHT22;44308;50.810;0.284;2022-11-23T01:51:29;7.00;99.90
58517;DHT22;44308;50.810;0.284;2022-11-23T01:54:22;7.20;99.90
58517;DHT22;44308;50.810;0.284;2022-11-23T01:56:54;7.40;99.90
58517;DHT22;44308;50.810;0.284;2022-11-23T01:59:22;7.30;99.90
58517;DHT22;44308;50.810;0.284;2022-11-23T02:01:49;7.20;99.90
58517;DHT22;44308;50.810;0.284;2022-11-23T02:04:21;7.30;99.90
58517;DHT22;44308;50.810;0.284;2022-11-23T02:06:47;7.20;99.90
58517;DHT22;44308;50.810;0.284;2022-11-23T02:09:15;6.90;99.90
58517;DHT22;44308;50.810;0.284;2022-11-23T02:11:41;6.80;99.90
58517;DHT22;44308;50.810;0.284;2022-11-23T02:14:06;6.70;99.90
58517;DHT22;44308;50.810;0.284;2022-11-23T02:16:34;6.50;99.90
58517;DHT22;44308;50.810;0.284;2022-11-23T02:19:01;6.50;99.90
58517;DHT22;44308;50.810;0.284;2022-11-23T02:21:27;6.60;99.90
58517;DHT22;44308;50.810;0.284;2022-11-23T02:24:00;6.70;99.90
58517;DHT22;44308;50.810;0.284;2022-11-23T02:26:32;6.40;99.90
58517;DHT22;44308;50.810;0.284;2022-11-23T02:31:30;6.40;99.90
58517;DHT22;44308;50.810;0.284;2022-11-23T02:33:56;6.50;99.90
58517;DHT22;44308;50.810;0.284;2022-11-23T02:39:26;6.70;99.90
58517;DHT22;44308;50.810;0.284;2022-11-23T02:41:54;6.30;99.90
58517;DHT22;44308;50.810;0.284;2022-11-23T02:47:09;6.30;99.90
58517;DHT22;44308;50.810;0.284;2022-11-23T02:49:35;6.00;99.90
58517;DHT22;44308;50.810;0.284;2022-11-23T02:52:02;6.30;99.90
58517;DHT22;44308;50.810;0.284;2022-11-23T02:54:28;5.90;99.90
58517;DHT22;44308;50.810;0.284;2022-11-23T02:56:54;6.10;99.90
58517;DHT22;44308;50.810;0.284;2022-11-23T02:59:20;6.00;99.90
58517;DHT22;44308;50.810;0.284;2022-11-23T03:01:46;5.90;99.90
58517;DHT22;44308;50.810;0.284;2022-11-23T03:04:12;5.80;99.90
58517;DHT22;44308;50.810;0.284;2022-11-23T03:06:38;6.10;99.90
58517;DHT22;44308;50.810;0.284;2022-11-23T03:09:04;6.10;99.90
58517;DHT22;44308;50.810;0.284;2022-11-23T03:11:31;6.10;99.90
58517;DHT22;44308;50.810;0.284;2022-11-23T03:13:56;6.20;99.90
58517;DHT22;44308;50.810;0.284;2022-11-23T03:16:23;6.30;99.90
58517;DHT22;44308;50.810;0.284;2022-11-23T03:18:50;6.30;99.90
58517;DHT22;44308;50.810;0.284;2022-11-23T03:21:16;6.10;99.90
58517;DHT22;44308;50.810;0.284;2022-11-23T03:23:42;6.40;99.90
58517;DHT22;44308;50.810;0.284;2022-11-23T03:26:07;6.30;99.90
58517;DHT22;44308;50.810;0.284;2022-11-23T03:28:33;6.30;99.90
58517;DHT22;44308;50.810;0.284;2022-11-23T03:30:59;7.00;99.90
58517;DHT22;44308;50.810;0.284;2022-11-23T03:33:25;7.30;99.90
58517;DHT22;44308;50.810;0.284;2022-11-23T03:35:50;7.90;99.90
58517;DHT22;44308;50.810;0.284;2022-11-23T03:38:16;8.40;99.90
58517;DHT22;44308;50.810;0.284;2022-11-23T03:40:45;8.80;99.90
58517;DHT22;44308;50.810;0.284;2022-11-23T03:43:11;8.90;99.90
58517;DHT22;44308;50.810;0.284;2022-11-23T03:45:38;9.00;99.90
58517;DHT22;44308;50.810;0.284;2022-11-23T03:48:04;8.90;99.90
58517;DHT22;44308;50.810;0.284;2022-11-23T03:50:30;9.00;99.90
58517;DHT22;44308;50.810;0.284;2022-11-23T03:52:56;9.20;99.90
58517;DHT22;44308;50.810;0.284;2022-11-23T03:55:22;9.20;99.90
58517;DHT22;44308;50.810;0.284;2022-11-23T03:57:48;9.10;99.90
58517;DHT22;44308;50.810;0.284;2022-11-23T04:00:14;9.20;99.90
58517;DHT22;44308;50.810;0.284;2022-11-23T04:02:41;9.30;99.90
58517;DHT22;44308;50.810;0.284;2022-11-23T04:05:07;9.10;99.90
58517;DHT22;44308;50.810;0.284;2022-11-23T04:07:33;9.30;99.90
58517;DHT22;44308;50.810;0.284;2022-11-23T04:09:58;9.30;99.90
58517;DHT22;44308;50.810;0.284;2022-11-23T04:12:24;9.40;99.90
58517;DHT22;44308;50.810;0.284;2022-11-23T04:14:51;9.50;99.90
58517;DHT22;44308;50.810;0.284;2022-11-23T04:17:16;9.40;99.90
58517;DHT22;44308;50.810;0.284;2022-11-23T04:19:42;9.60;99.90
58517;DHT22;44308;50.810;0.284;2022-11-23T04:22:08;9.50;99.90
58517;DHT22;44308;50.810;0.284;2022-11-23T04:24:34;9.70;99.90
58517;DHT22;44308;50.810;0.284;2022-11-23T04:26:59;9.70;99.90
58517;DHT22;44308;50.810;0.284;2022-11-23T04:29:25;9.60;99.90
58517;DHT22;44308;50.810;0.284;2022-11-23T04:31:50;9.70;99.90
58517;DHT22;44308;50.810;0.284;2022-11-23T04:34:16;9.70;99.90
58517;DHT22;44308;50.810;0.284;2022-11-23T04:36:44;9.90;99.90
58517;DHT22;44308;50.810;0.284;2022-11-23T04:39:11;9.70;99.90
58517;DHT22;44308;50.810;0.284;2022-11-23T04:41:39;9.90;99.90
58517;DHT22;44308;50.810;0.284;2022-11-23T04:44:05;9.90;99.90
58517;DHT22;44308;50.810;0.284;2022-11-23T04:46:31;10.00;99.90
58517;DHT22;44308;50.810;0.284;2022-11-23T04:48:57;10.10;99.90
58517;DHT22;44308;50.810;0.284;2022-11-23T04:51:23;10.10;99.90
58517;DHT22;44308;50.810;0.284;2022-11-23T04:53:48;10.20;99.90
58517;DHT22;44308;50.810;0.284;2022-11-23T04:56:14;10.00;99.90
58517;DHT22;44308;50.810;0.284;2022-11-23T04:58:40;10.10;99.90
58517;DHT22;44308;50.810;0.284;2022-11-23T05:01:06;10.20;99.90
58517;DHT22;44308;50.810;0.284;2022-11-23T05:03:32;10.20;99.90
58517;DHT22;44308;50.810;0.284;2022-11-23T05:06:02;10.30;99.90
58517;DHT22;44308;50.810;0.284;2022-11-23T05:08:28;10.50;99.90
58517;DHT22;44308;50.810;0.284;2022-11-23T05:10:54;10.70;99.90
58517;DHT22;44308;50.810;0.284;2022-11-23T05:13:20;10.60;99.90
58517;DHT22;44308;50.810;0.284;2022-11-23T05:15:46;10.70;99.90
58517;DHT22;44308;50.810;0.284;2022-11-23T05:18:11;10.80;99.90
58517;DHT22;44308;50.810;0.284;2022-11-23T05:20:37;10.70;99.90
58517;DHT22;44308;50.810;0.284;2022-11-23T05:23:03;10.80;99.90
58517;DHT22;44308;50.810;0.284;2022-11-23T05:25:29;10.80;99.90
58517;DHT22;44308;50.810;0.284;2022-11-23T05:27:55;11.10;99.90
58517;DHT22;44308;50.810;0.284;2022-11-23T05:30:21;11.00;99.90
58517;DHT22;44308;50.810;0.284;2022-11-23T05:32:46;11.10;99.90
58517;DHT22;44308;50.810;0.284;2022-11-23T05:35:12;11.00;99.90
58517;DHT22;44308;50.810;0.284;2022-11-23T05:37:38;11.10;99.90
58517;DHT22;44308;50.810;0.284;2022-11-23T05:40:05;11.20;99.90
58517;DHT22;44308;50.810;0.284;2022-11-23T05:42:31;11.20;99.90
58517;DHT22;44308;50.810;0.284;2022-11-23T05:44:57;11.00;99.90
58517;DHT22;44308;50.810;0.284;2022-11-23T05:47:23;11.30;99.90
58517;DHT22;44308;50.810;0.284;2022-11-23T05:49:48;11.20;99.90
58517;DHT22;44308;50.810;0.284;2022-11-23T05:52:15;11.30;99.90
58517;DHT22;44308;50.810;0.284;2022-11-23T05:54:41;11.10;99.90
58517;DHT22;44308;50.810;0.284;2022-11-23T05:57:07;11.10;99.90
58517;DHT22;44308;50.810;0.284;2022-11-23T05:59:33;11.30;99.90
58517;DHT22;44308;50.810;0.284;2022-11-23T06:02:00;11.00;99.90
58517;DHT22;44308;50.810;0.284;2022-11-23T06:04:26;11.30;99.90
58517;DHT22;44308;50.810;0.284;2022-11-23T06:06:52;11.30;99.90
58517;DHT22;44308;50.810;0.284;2022-11-23T06:09:21;11.20;99.90
58517;DHT22;44308;50.810;0.284;2022-11-23T06:11:47;11.20;99.90
58517;DHT22;44308;50.810;0.284;2022-11-23T06:14:13;10.80;99.90
58517;DHT22;44308;50.810;0.284;2022-11-23T06:16:39;11.10;99.90
58517;DHT22;44308;50.810;0.284;2022-11-23T06:19:04;11.30;99.90
58517;DHT22;44308;50.810;0.284;2022-11-23T06:21:30;11.20;99.90
58517;DHT22;44308;50.810;0.284;2022-11-23T06:23:56;10.90;99.90
58517;DHT22;44308;50.810;0.284;2022-11-23T06:26:22;11.30;99.90
58517;DHT22;44308;50.810;0.284;2022-11-23T06:28:47;11.20;99.90
58517;DHT22;44308;50.810;0.284;2022-11-23T06:31:13;11.10;99.90
58517;DHT22;44308;50.810;0.284;2022-11-23T06:33:39;11.20;99.90
58517;DHT22;44308;50.810;0.284;2022-11-23T06:36:05;10.90;99.90
58517;DHT22;44308;50.810;0.284;2022-11-23T06:38:31;10.80;99.90
58517;DHT22;44308;50.810;0.284;2022-11-23T06:41:01;10.90;99.90
58517;DHT22;44308;50.810;0.284;2022-11-23T06:43:27;11.20;99.90
58517;DHT22;44308;50.810;0.284;2022-11-23T06:45:54;11.20;99.90
58517;DHT22;44308;50.810;0.284;2022-11-23T06:48:19;11.30;99.90
58517;DHT22;44308;50.810;0.284;2022-11-23T06:50:45;10.90;99.90
58517;DHT22;44308;50.810;0.284;2022-11-23T06:53:11;11.10;99.90
58517;DHT22;44308;50.810;0.284;2022-11-23T06:55:37;11.30;99.90
58517;DHT22;44308;50.810;0.284;2022-11-23T06:58:03;11.20;99.90
58517;DHT22;44308;50.810;0.284;2022-11-23T07:00:30;11.00;99.90
58517;DHT22;44308;50.810;0.284;2022-11-23T07:02:56;11.00;99.90
58517;DHT22;44308;50.810;0.284;2022-11-23T07:05:23;11.30;99.90
58517;DHT22;44308;50.810;0.284;2022-11-23T07:07:48;11.00;99.90
58517;DHT22;44308;50.810;0.284;2022-11-23T07:10:14;11.20;99.90
58517;DHT22;44308;50.810;0.284;2022-11-23T07:12:40;10.90;99.90
58517;DHT22;44308;50.810;0.284;2022-11-23T07:15:07;10.90;99.90
58517;DHT22;44308;50.810;0.284;2022-11-23T07:17:37;10.70;99.90
58517;DHT22;44308;50.810;0.284;2022-11-23T07:20:04;11.10;99.90
58517;DHT22;44308;50.810;0.284;2022-11-23T07:22:29;10.70;99.90
58517;DHT22;44308;50.810;0.284;2022-11-23T07:24:55;10.70;99.90
58517;DHT22;44308;50.810;0.284;2022-11-23T07:27:21;10.90;99.90
58517;DHT22;44308;50.810;0.284;2022-11-23T07:29:47;11.00;99.90
58517;DHT22;44308;50.810;0.284;2022-11-23T07:32:13;11.00;99.90
58517;DHT22;44308;50.810;0.284;2022-11-23T07:34:40;10.70;99.90
58517;DHT22;44308;50.810;0.284;2022-11-23T07:37:06;10.60;99.90
58517;DHT22;44308;50.810;0.284;2022-11-23T07:39:32;10.50;99.90
58517;DHT22;44308;50.810;0.284;2022-11-23T07:41:57;10.90;99.90
58517;DHT22;44308;50.810;0.284;2022-11-23T07:44:23;10.80;99.90
58517;DHT22;44308;50.810;0.284;2022-11-23T07:46:52;10.60;99.90
58517;DHT22;44308;50.810;0.284;2022-11-23T07:49:17;10.80;99.90
58517;DHT22;44308;50.810;0.284;2022-11-23T07:51:43;10.60;99.90
58517;DHT22;44308;50.810;0.284;2022-11-23T07:54:09;10.30;99.90
58517;DHT22;44308;50.810;0.284;2022-11-23T07:56:34;10.50;99.90
58517;DHT22;44308;50.810;0.284;2022-11-23T07:59:00;10.70;99.90
58517;DHT22;44308;50.810;0.284;2022-11-23T08:01:26;10.50;99.90
58517;DHT22;44308;50.810;0.284;2022-11-23T08:03:51;10.80;99.90
58517;DHT22;44308;50.810;0.284;2022-11-23T08:06:17;10.40;99.90
58517;DHT22;44308;50.810;0.284;2022-11-23T08:08:43;10.30;99.90
58517;DHT22;44308;50.810;0.284;2022-11-23T08:11:09;10.30;99.90
58517;DHT22;44308;50.810;0.284;2022-11-23T08:13:35;10.60;99.90
58517;DHT22;44308;50.810;0.284;2022-11-23T08:16:02;10.40;99.90
58517;DHT22;44308;50.810;0.284;2022-11-23T08:18:28;11.00;99.90
58517;DHT22;44308;50.810;0.284;2022-11-23T08:20:57;10.80;99.90
58517;DHT22;44308;50.810;0.284;2022-11-23T08:23:23;10.70;99.90
58517;DHT22;44308;50.810;0.284;2022-11-23T08:25:50;10.90;99.90
58517;DHT22;44308;50.810;0.284;2022-11-23T08:28:16;10.90;99.90
58517;DHT22;44308;50.810;0.284;2022-11-23T08:30:42;11.00;99.90
58517;DHT22;44308;50.810;0.284;2022-11-23T08:33:08;10.80;99.90
58517;DHT22;44308;50.810;0.284;2022-11-23T08:35:38;10.60;99.90
58517;DHT22;44308;50.810;0.284;2022-11-23T08:38:05;10.70;99.90
58517;DHT22;44308;50.810;0.284;2022-11-23T08:40:32;11.10;99.90
58517;DHT22;44308;50.810;0.284;2022-11-23T08:42:57;11.10;99.90
58517;DHT22;44308;50.810;0.284;2022-11-23T08:45:23;10.90;99.90
58517;DHT22;44308;50.810;0.284;2022-11-23T08:47:49;10.80;99.90
58517;DHT22;44308;50.810;0.284;2022-11-23T08:50:18;11.30;99.90
58517;DHT22;44308;50.810;0.284;2022-11-23T08:52:44;11.10;99.90
58517;DHT22;44308;50.810;0.284;2022-11-23T08:55:10;10.90;99.90
58517;DHT22;44308;50.810;0.284;2022-11-23T08:57:36;11.50;99.90
58517;DHT22;44308;50.810;0.284;2022-11-23T09:00:03;11.20;99.90
58517;DHT22;44308;50.810;0.284;2022-11-23T09:02:30;11.60;99.90
58517;DHT22;44308;50.810;0.284;2022-11-23T09:04:55;11.60;99.90
58517;DHT22;44308;50.810;0.284;2022-11-23T09:07:21;11.60;99.90
58517;DHT22;44308;50.810;0.284;2022-11-23T09:09:46;11.60;99.90
58517;DHT22;44308;50.810;0.284;2022-11-23T09:12:12;11.20;99.90
58517;DHT22;44308;50.810;0.284;2022-11-23T09:14:38;11.20;99.90
58517;DHT22;44308;50.810;0.284;2022-11-23T09:17:04;11.80;99.90
58517;DHT22;44308;50.810;0.284;2022-11-23T09:19:29;11.40;99.90
58517;DHT22;44308;50.810;0.284;2022-11-23T09:21:55;11.80;99.90
58517;DHT22;44308;50.810;0.284;2022-11-23T09:24:22;11.70;99.90
58517;DHT22;44308;50.810;0.284;2022-11-23T09:26:48;11.30;99.90
58517;DHT22;44308;50.810;0.284;2022-11-23T09:29:13;11.40;99.90
58517;DHT22;44308;50.810;0.284;2022-11-23T09:31:39;11.00;99.90
58517;DHT22;44308;50.810;0.284;2022-11-23T09:34:05;11.00;99.90
58517;DHT22;44308;50.810;0.284;2022-11-23T09:36:32;11.40;99.90
58517;DHT22;44308;50.810;0.284;2022-11-23T09:38:58;11.30;99.90
58517;DHT22;44308;50.810;0.284;2022-11-23T09:44:23;11.70;99.90
58517;DHT22;44308;50.810;0.284;2022-11-23T09:47:10;11.70;99.90
58517;DHT22;44308;50.810;0.284;2022-11-23T09:50:09;11.90;99.90
58517;DHT22;44308;50.810;0.284;2022-11-23T09:52:44;11.40;99.90
58517;DHT22;44308;50.810;0.284;2022-11-23T09:55:23;11.50;99.90
58517;DHT22;44308;50.810;0.284;2022-11-23T09:58:00;11.20;99.90
58517;DHT22;44308;50.810;0.284;2022-11-23T10:00:26;11.40;99.90
58517;DHT22;44308;50.810;0.284;2022-11-23T10:02:55;11.30;99.90
58517;DHT22;44308;50.810;0.284;2022-11-23T10:05:25;11.10;99.90
58517;DHT22;44308;50.810;0.284;2022-11-23T10:10:40;11.30;99.90
58517;DHT22;44308;50.810;0.284;2022-11-23T10:15:52;11.30;99.90
58517;DHT22;44308;50.810;0.284;2022-11-23T10:24:12;11.50;99.90
58517;DHT22;44308;50.810;0.284;2022-11-23T10:26:41;11.50;99.90
58517;DHT22;44308;50.810;0.284;2022-11-23T10:29:50;11.40;99.90
58517;DHT22;44308;50.810;0.284;2022-11-23T10:35:14;11.70;99.90
58517;DHT22;44308;50.810;0.284;2022-11-23T10:37:41;11.80;99.90
58517;DHT22;44308;50.810;0.284;2022-11-23T10:40:19;12.50;99.90
58517;DHT22;44308;50.810;0.284;2022-11-23T10:43:20;12.70;99.90
58517;DHT22;44308;50.810;0.284;2022-11-23T10:45:47;13.10;99.90
58517;DHT22;44308;50.810;0.284;2022-11-23T10:48:33;13.20;99.90
58517;DHT22;44308;50.810;0.284;2022-11-23T10:51:28;13.30;99.90
58517;DHT22;44308;50.810;0.284;2022-11-23T10:54:03;13.30;99.90
58517;DHT22;44308;50.810;0.284;2022-11-23T10:56:29;13.40;99.90
58517;DHT22;44308;50.810;0.284;2022-11-23T10:58:56;13.40;99.90
58517;DHT22;44308;50.810;0.284;2022-11-23T11:01:24;13.40;99.90
58517;DHT22;44308;50.810;0.284;2022-11-23T11:03:51;13.30;99.90
58517;DHT22;44308;50.810;0.284;2022-11-23T11:06:27;13.10;99.90
58517;DHT22;44308;50.810;0.284;2022-11-23T11:08:56;13.20;99.90
58517;DHT22;44308;50.810;0.284;2022-11-23T11:11:45;13.10;99.90
58517;DHT22;44308;50.810;0.284;2022-11-23T11:14:15;13.10;99.90
58517;DHT22;44308;50.810;0.284;2022-11-23T11:16:49;13.20;99.90
58517;DHT22;44308;50.810;0.284;2022-11-23T11:19:32;13.10;99.90
58517;DHT22;44308;50.810;0.284;2022-11-23T11:22:00;13.20;99.90
58517;DHT22;44308;50.810;0.284;2022-11-23T11:24:37;13.20;99.90
58517;DHT22;44308;50.810;0.284;2022-11-23T11:27:14;13.20;99.90
58517;DHT22;44308;50.810;0.284;2022-11-23T11:32:18;13.10;99.90
58517;DHT22;44308;50.810;0.284;2022-11-23T11:34:50;13.10;99.90
58517;DHT22;44308;50.810;0.284;2022-11-23T11:37:31;13.10;99.90
58517;DHT22;44308;50.810;0.284;2022-11-23T11:40:06;13.00;99.90
58517;DHT22;44308;50.810;0.284;2022-11-23T11:42:42;13.00;99.90
58517;DHT22;44308;50.810;0.284;2022-11-23T11:45:28;13.00;99.90
58517;DHT22;44308;50.810;0.284;2022-11-23T11:50:32;13.20;99.90
58517;DHT22;44308;50.810;0.284;2022-11-23T11:53:03;13.10;99.90
58517;DHT22;44308;50.810;0.284;2022-11-23T11:56:03;13.20;99.90
58517;DHT22;44308;50.810;0.284;2022-11-23T11:58:32;13.10;99.90
58517;DHT22;44308;50.810;0.284;2022-11-23T12:03:53;13.10;99.90
58517;DHT22;44308;50.810;0.284;2022-11-23T12:06:34;13.00;99.90
58517;DHT22;44308;50.810;0.284;2022-11-23T12:09:04;13.10;99.90
58517;DHT22;44308;50.810;0.284;2022-11-23T12:11:31;13.20;99.90
58517;DHT22;44308;50.810;0.284;2022-11-23T12:14:04;13.30;99.90
58517;DHT22;44308;50.810;0.284;2022-11-23T12:17:04;13.40;99.90
58517;DHT22;44308;50.810;0.284;2022-11-23T12:54:46;13.70;99.90
58517;DHT22;44308;50.810;0.284;2022-11-23T12:57:29;13.80;99.90
58517;DHT22;44308;50.810;0.284;2022-11-23T13:00:06;13.90;99.90
58517;DHT22;44308;50.810;0.284;2022-11-23T13:03:02;13.80;99.90
58517;DHT22;44308;50.810;0.284;2022-11-23T13:11:45;13.80;99.90
58517;DHT22;44308;50.810;0.284;2022-11-23T13:19:43;13.30;99.90
58517;DHT22;44308;50.810;0.284;2022-11-23T13:22:16;13.20;99.90
58517;DHT22;44308;50.810;0.284;2022-11-23T13:25:24;13.10;99.90
58517;DHT22;44308;50.810;0.284;2022-11-23T13:33:01;13.30;99.90
58517;DHT22;44308;50.810;0.284;2022-11-23T13:40:24;13.90;99.90
58517;DHT22;44308;50.810;0.284;2022-11-23T13:42:51;14.00;99.90
58517;DHT22;44308;50.810;0.284;2022-11-23T13:48:10;14.00;99.90
58517;DHT22;44308;50.810;0.284;2022-11-23T13:50:58;13.70;99.90
58517;DHT22;44308;50.810;0.284;2022-11-23T13:55:55;13.60;99.90
58517;DHT22;44308;50.810;0.284;2022-11-23T14:00:57;13.50;99.90
58517;DHT22;44308;50.810;0.284;2022-11-23T14:06:16;13.10;99.90
58517;DHT22;44308;50.810;0.284;2022-11-23T14:08:46;13.10;99.90
58517;DHT22;44308;50.810;0.284;2022-11-23T14:11:16;13.10;99.90
58517;DHT22;44308;50.810;0.284;2022-11-23T14:13:55;13.20;99.90
58517;DHT22;44308;50.810;0.284;2022-11-23T14:22:30;13.30;99.90
58517;DHT22;44308;50.810;0.284;2022-11-23T14:25:10;13.30;99.90
58517;DHT22;44308;50.810;0.284;2022-11-23T14:33:26;12.30;99.90
58517;DHT22;44308;50.810;0.284;2022-11-23T14:36:20;12.10;99.90
58517;DHT22;44308;50.810;0.284;2022-11-23T14:41:23;12.20;99.90
58517;DHT22;44308;50.810;0.284;2022-11-23T14:43:51;12.20;99.90
58517;DHT22;44308;50.810;0.284;2022-11-23T14:46:19;12.10;99.90
58517;DHT22;44308;50.810;0.284;2022-11-23T14:48:55;12.10;99.90
58517;DHT22;44308;50.810;0.284;2022-11-23T14:51:27;12.10;99.90
58517;DHT22;44308;50.810;0.284;2022-11-23T14:53:55;11.80;99.90
58517;DHT22;44308;50.810;0.284;2022-11-23T14:56:35;12.00;99.90
58517;DHT22;44308;50.810;0.284;2022-11-23T14:59:23;12.00;99.90
58517;DHT22;44308;50.810;0.284;2022-11-23T15:01:58;11.90;99.90
58517;DHT22;44308;50.810;0.284;2022-11-23T15:07:04;12.00;99.90
58517;DHT22;44308;50.810;0.284;2022-11-23T15:09:41;12.10;99.90
58517;DHT22;44308;50.810;0.284;2022-11-23T15:12:26;12.10;99.90
58517;DHT22;44308;50.810;0.284;2022-11-23T15:14:53;12.20;99.90
58517;DHT22;44308;50.810;0.284;2022-11-23T15:17:22;12.00;99.90
58517;DHT22;44308;50.810;0.284;2022-11-23T15:19:58;11.90;99.90
58517;DHT22;44308;50.810;0.284;2022-11-23T15:22:27;11.70;99.90
58517;DHT22;44308;50.810;0.284;2022-11-23T15:25:22;11.80;99.90
58517;DHT22;44308;50.810;0.284;2022-11-23T15:27:51;11.90;99.90
58517;DHT22;44308;50.810;0.284;2022-11-23T15:30:18;12.00;99.90
58517;DHT22;44308;50.810;0.284;2022-11-23T15:32:54;11.90;99.90
58517;DHT22;44308;50.810;0.284;2022-11-23T15:35:37;12.00;99.90
58517;DHT22;44308;50.810;0.284;2022-11-23T15:38:13;12.00;99.90
58517;DHT22;44308;50.810;0.284;2022-11-23T15:40:41;11.90;99.90
58517;DHT22;44308;50.810;0.284;2022-11-23T15:43:12;11.90;99.90
58517;DHT22;44308;50.810;0.284;2022-11-23T15:46:00;11.80;99.90
58517;DHT22;44308;50.810;0.284;2022-11-23T15:48:34;11.80;99.90
58517;DHT22;44308;50.810;0.284;2022-11-23T15:51:17;12.00;99.90
58517;DHT22;44308;50.810;0.284;2022-11-23T15:53:47;12.00;99.90
58517;DHT22;44308;50.810;0.284;2022-11-23T15:56:24;12.20;99.90
58517;DHT22;44308;50.810;0.284;2022-11-23T15:58:52;12.10;99.90
58517;DHT22;44308;50.810;0.284;2022-11-23T16:01:18;12.20;99.90
58517;DHT22;44308;50.810;0.284;2022-11-23T16:03:49;12.10;99.90
58517;DHT22;44308;50.810;0.284;2022-11-23T16:08:56;12.10;99.90
58517;DHT22;44308;50.810;0.284;2022-11-23T16:11:35;12.20;99.90
58517;DHT22;44308;50.810;0.284;2022-11-23T16:14:25;12.30;99.90
58517;DHT22;44308;50.810;0.284;2022-11-23T16:17:24;12.30;99.90
58517;DHT22;44308;50.810;0.284;2022-11-23T16:19:52;12.10;99.90
58517;DHT22;44308;50.810;0.284;2022-11-23T16:22:39;12.00;99.90
58517;DHT22;44308;50.810;0.284;2022-11-23T16:25:27;11.80;99.90
58517;DHT22;44308;50.810;0.284;2022-11-23T16:28:05;11.80;99.90
58517;DHT22;44308;50.810;0.284;2022-11-23T16:30:43;11.80;99.90
58517;DHT22;44308;50.810;0.284;2022-11-23T16:33:18;12.00;99.90
58517;DHT22;44308;50.810;0.284;2022-11-23T16:35:45;12.10;99.90
58517;DHT22;44308;50.810;0.284;2022-11-23T16:38:11;12.20;99.90
58517;DHT22;44308;50.810;0.284;2022-11-23T16:40:37;12.20;99.90
58517;DHT22;44308;50.810;0.284;2022-11-23T16:43:03;12.10;99.90
58517;DHT22;44308;50.810;0.284;2022-11-23T16:45:30;12.10;99.90
58517;DHT22;44308;50.810;0.284;2022-11-23T16:48:01;12.00;99.90
58517;DHT22;44308;50.810;0.284;2022-11-23T16:50:30;12.00;99.90
58517;DHT22;44308;50.810;0.284;2022-11-23T16:52:59;12.00;99.90
58517;DHT22;44308;50.810;0.284;2022-11-23T16:55:25;12.00;99.90
58517;DHT22;44308;50.810;0.284;2022-11-23T16:57:51;12.00;99.90
58517;DHT22;44308;50.810;0.284;2022-11-23T17:00:19;12.00;99.90
58517;DHT22;44308;50.810;0.284;2022-11-23T17:02:47;12.00;99.90
58517;DHT22;44308;50.810;0.284;2022-11-23T17:05:20;12.10;99.90
58517;DHT22;44308;50.810;0.284;2022-11-23T17:07:48;12.10;99.90
58517;DHT22;44308;50.810;0.284;2022-11-23T17:10:17;12.10;99.90
58517;DHT22;44308;50.810;0.284;2022-11-23T17:12:54;12.20;99.90
58517;DHT22;44308;50.810;0.284;2022-11-23T17:15:21;12.30;99.90
58517;DHT22;44308;50.810;0.284;2022-11-23T17:18:00;12.20;99.90
58517;DHT22;44308;50.810;0.284;2022-11-23T17:20:26;12.30;99.90
58517;DHT22;44308;50.810;0.284;2022-11-23T17:22:53;12.10;99.90
58517;DHT22;44308;50.810;0.284;2022-11-23T17:25:25;12.10;99.90
58517;DHT22;44308;50.810;0.284;2022-11-23T17:27:51;12.10;99.90
58517;DHT22;44308;50.810;0.284;2022-11-23T17:30:19;12.10;99.90
58517;DHT22;44308;50.810;0.284;2022-11-23T17:32:48;12.00;99.90
58517;DHT22;44308;50.810;0.284;2022-11-23T17:35:15;12.20;99.90
58517;DHT22;44308;50.810;0.284;2022-11-23T17:37:41;12.10;99.90
58517;DHT22;44308;50.810;0.284;2022-11-23T17:40:19;12.20;99.90
58517;DHT22;44308;50.810;0.284;2022-11-23T17:42:46;12.30;99.90
58517;DHT22;44308;50.810;0.284;2022-11-23T17:45:12;12.30;99.90
58517;DHT22;44308;50.810;0.284;2022-11-23T17:47:42;12.30;99.90
58517;DHT22;44308;50.810;0.284;2022-11-23T17:50:16;12.30;99.90